createdAt,value
2022-08-14T00:03:37.423Z,101306.72
2022-08-14T00:08:44.656Z,101301.50
2022-08-14T00:13:53.047Z,101308.78
2022-08-14T00:19:06.565Z,101302.59
2022-08-14T00:24:28.198Z,101320.41
2022-08-14T00:29:33.221Z,101309.81
2022-08-14T00:34:46.403Z,101295.69
2022-08-14T00:39:49.011Z,101293.94
2022-08-14T00:44:51.492Z,101280.66
2022-08-14T00:49:57.171Z,101278.06
2022-08-14T00:54:59.363Z,101276.41
2022-08-14T01:00:34.283Z,101274.72
2022-08-14T01:05:41.787Z,101270.31
2022-08-14T01:10:55.339Z,101265.00
2022-08-14T01:16:02.700Z,101252.59
2022-08-14T01:21:11.725Z,101248.97
2022-08-14T01:26:34.372Z,101249.84
2022-08-14T01:31:54.857Z,101243.63
2022-08-14T01:36:56.872Z,101227.66
2022-08-14T01:42:00.893Z,101225.94
2022-08-14T01:47:21.813Z,101232.09
2022-08-14T01:52:34.639Z,101223.28
2022-08-14T01:58:00.809Z,101220.66
2022-08-14T02:03:08.645Z,101213.66
2022-08-14T02:08:11.038Z,101211.03
2022-08-14T02:13:18.589Z,101205.78
2022-08-14T02:18:33.161Z,101201.41
2022-08-14T02:23:38.012Z,101197.06
2022-08-14T02:28:56.630Z,101190.97
2022-08-14T02:34:00.771Z,101179.59
2022-08-14T02:39:02.421Z,101176.19
2022-08-14T02:44:06.230Z,101179.88
2022-08-14T02:49:13.428Z,101175.50
2022-08-14T02:54:19.653Z,101167.59
2022-08-14T02:59:34.687Z,101157.03
2022-08-14T03:04:38.973Z,101151.03
2022-08-14T03:10:28.236Z,101152.91
2022-08-14T03:15:16.573Z,101145.03
2022-08-14T03:20:22.404Z,101136.25
2022-08-14T03:25:24.305Z,101132.72
2022-08-14T03:30:39.674Z,101137.25
2022-08-14T03:35:59.995Z,101143.53
2022-08-14T03:41:07.582Z,101132.94
2022-08-14T03:46:52.738Z,101126.75
2022-08-14T03:51:36.914Z,101109.97
2022-08-14T03:56:40.515Z,101100.28
2022-08-14T04:01:45.604Z,101097.63
2022-08-14T04:06:48.778Z,101102.09
2022-08-14T04:11:51.451Z,101101.25
2022-08-14T04:16:52.986Z,101099.53
2022-08-14T04:22:02.494Z,101095.16
2022-08-14T04:27:09.988Z,101096.94
2022-08-14T04:32:58.246Z,101088.09
2022-08-14T04:37:53.723Z,101081.00
2022-08-14T04:43:17.421Z,101067.72
2022-08-14T04:48:39.113Z,101068.59
2022-08-14T04:53:48.216Z,101074.75
2022-08-14T04:58:57.551Z,101066.72
2022-08-14T05:03:59.281Z,101063.97
2022-08-14T05:09:04.850Z,101063.91
2022-08-14T05:14:33.055Z,101061.22
2022-08-14T05:19:44.850Z,101060.28
2022-08-14T05:25:09.036Z,101060.28
2022-08-14T05:30:17.516Z,101059.34
2022-08-14T05:35:23.848Z,101059.38
2022-08-14T05:40:28.035Z,101065.59
2022-08-14T05:45:29.897Z,101062.00
2022-08-14T05:50:43.630Z,101060.28
2022-08-14T05:55:52.573Z,101058.47
2022-08-14T06:00:56.318Z,101066.31
2022-08-14T06:06:05.481Z,101067.16
2022-08-14T06:11:20.090Z,101064.38
2022-08-14T06:16:25.370Z,101066.75
2022-08-14T06:21:27.007Z,101055.81
2022-08-14T06:26:30.335Z,101058.06
2022-08-14T06:31:32.653Z,101053.81
2022-08-14T06:36:36.596Z,101046.63
2022-08-14T06:41:57.137Z,101043.75
2022-08-14T06:47:02.646Z,101042.41
2022-08-14T06:52:04.886Z,101045.94
2022-08-14T06:57:07.623Z,101054.97
2022-08-14T07:02:28.944Z,101056.59
2022-08-14T07:07:42.631Z,101050.31
2022-08-14T07:13:00.761Z,101043.66
2022-08-14T07:18:08.814Z,101040.81
2022-08-14T07:23:20.827Z,101041.72
2022-08-14T07:28:45.238Z,101054.03
2022-08-14T07:33:51.576Z,101057.63
2022-08-14T07:38:53.485Z,101061.50
2022-08-14T07:43:55.825Z,101064.44
2022-08-14T07:48:59.375Z,101060.31
2022-08-14T07:54:00.856Z,101071.06
2022-08-14T07:59:02.456Z,101067.00
2022-08-14T08:04:04.222Z,101064.50
2022-08-14T08:09:18.282Z,101065.41
2022-08-14T08:14:21.048Z,101062.69
2022-08-14T08:19:22.692Z,101054.25
2022-08-14T08:24:24.469Z,101054.53
2022-08-14T08:29:29.259Z,101054.88
2022-08-14T08:34:31.341Z,101050.03
2022-08-14T08:40:03.287Z,101046.97
2022-08-14T08:45:04.879Z,101031.06
2022-08-14T08:55:34.824Z,101012.63
2022-08-14T09:00:39.300Z,101013.09
2022-08-14T09:05:53.968Z,101011.91
2022-08-14T09:10:57.339Z,101008.13
2022-08-14T09:16:01.868Z,100991.72
2022-08-14T09:21:21.385Z,100993.44
2022-08-14T09:26:28.623Z,100984.47
2022-08-14T09:31:52.866Z,100978.59
2022-08-14T09:37:34.698Z,100973.13
2022-08-14T09:43:36.033Z,100954.53
2022-08-14T09:48:48.643Z,100956.53
2022-08-14T09:54:18.781Z,100948.03
2022-08-14T09:59:25.486Z,100931.63
2022-08-14T10:04:34.209Z,100943.41
2022-08-14T10:09:59.973Z,100932.28
2022-08-14T10:15:15.255Z,100923.03
2022-08-14T10:20:39.361Z,100927.75
2022-08-14T10:26:58.748Z,100918.50
2022-08-14T10:40:05.680Z,100908.88
2022-08-14T10:45:33.906Z,100894.84
2022-08-14T10:50:42.546Z,100883.47
2022-08-14T10:56:33.753Z,100886.53
2022-08-14T11:02:54.955Z,100872.97
2022-08-14T11:08:43.022Z,100868.28
2022-08-14T11:14:29.626Z,100864.22
2022-08-14T11:25:53.261Z,100861.13
2022-08-14T11:31:03.695Z,100859.91
2022-08-14T11:36:18.528Z,100861.22
2022-08-14T11:41:55.587Z,100851.25
2022-08-14T11:47:06.981Z,100836.63
2022-08-14T11:52:08.899Z,100838.38
2022-08-14T11:57:14.955Z,100819.41
2022-08-14T12:03:01.521Z,100810.94
2022-08-14T12:07:49.589Z,100795.75
2022-08-14T12:12:54.800Z,100779.41
2022-08-14T12:17:56.344Z,100792.22
2022-08-14T12:22:58.854Z,100783.75
2022-08-14T12:28:26.664Z,100776.38
2022-08-14T12:33:34.347Z,100769.59
2022-08-14T12:38:44.332Z,100762.50
2022-08-14T12:43:51.374Z,100753.41
2022-08-14T12:48:53.689Z,100758.50
2022-08-14T12:53:59.328Z,100749.97
2022-08-14T12:59:02.306Z,100743.03
2022-08-14T13:04:15.766Z,100728.09
2022-08-14T13:09:17.766Z,100723.56
2022-08-14T13:14:29.829Z,100722.47
2022-08-14T13:19:33.342Z,100717.47
2022-08-14T13:24:37.728Z,100698.00
2022-08-14T13:29:47.001Z,100676.88
2022-08-14T13:34:49.603Z,100678.47
2022-08-14T13:39:56.833Z,100667.06
2022-08-14T13:45:02.269Z,100649.63
2022-08-14T13:50:09.178Z,100649.13
2022-08-14T13:55:15.796Z,100633.56
2022-08-14T14:00:21.821Z,100636.06
2022-08-14T14:05:52.515Z,100643.91
2022-08-14T14:10:56.050Z,100641.47
2022-08-14T14:15:59.694Z,100633.78
2022-08-14T14:21:06.334Z,100628.88
2022-08-14T14:26:18.853Z,100613.59
2022-08-14T14:31:31.357Z,100616.34
2022-08-14T14:36:36.566Z,100622.97
2022-08-14T14:41:43.763Z,100619.22
2022-08-14T14:46:51.023Z,100597.84
2022-08-14T14:51:58.478Z,100615.03
2022-08-14T14:57:02.714Z,100604.75
2022-08-14T15:02:07.981Z,100604.78
2022-08-14T15:07:12.513Z,100599.00
2022-08-14T15:12:27.834Z,100582.22
2022-08-14T15:17:40.912Z,100577.78
2022-08-14T15:22:43.687Z,100565.41
2022-08-14T15:27:54.480Z,100568.38
2022-08-14T15:32:56.391Z,100556.69
2022-08-14T15:37:57.920Z,100551.03
2022-08-14T15:43:00.481Z,100548.41
2022-08-14T15:48:02.166Z,100550.94
2022-08-14T15:53:09.063Z,100543.03
2022-08-14T15:58:14.512Z,100535.22
2022-08-14T16:03:27.527Z,100530.59
2022-08-14T16:08:37.491Z,100524.34
2022-08-14T16:13:45.105Z,100523.13
2022-08-14T16:18:58.233Z,100511.22
2022-08-14T16:24:27.024Z,100512.69
2022-08-14T16:29:34.689Z,100502.56
2022-08-14T16:34:48.476Z,100501.84
2022-08-14T16:39:53.952Z,100504.84
2022-08-14T16:44:58.601Z,100492.81
2022-08-14T16:50:04.562Z,100491.91
2022-08-14T16:55:09.478Z,100486.63
2022-08-14T17:00:43.015Z,100490.91
2022-08-14T17:05:47.930Z,100478.31
2022-08-14T17:10:52.366Z,100478.81
2022-08-14T17:16:25.554Z,100476.16
2022-08-14T17:21:37.273Z,100475.31
2022-08-14T17:27:00.049Z,100469.97
2022-08-14T17:32:28.211Z,100470.81
2022-08-14T17:37:45.105Z,100460.22
2022-08-14T17:42:51.635Z,100455.03
2022-08-14T17:47:59.173Z,100457.91
2022-08-14T17:53:02.571Z,100451.94
2022-08-14T17:58:20.435Z,100457.22
2022-08-14T18:03:45.829Z,100460.03
2022-08-14T18:08:49.398Z,100458.63
2022-08-14T18:13:59.911Z,100456.00
2022-08-14T18:19:03.153Z,100458.69
2022-08-14T18:24:20.378Z,100463.19
2022-08-14T18:29:31.500Z,100463.22
2022-08-14T18:34:51.019Z,100469.75
2022-08-14T18:40:03.151Z,100461.97
2022-08-14T18:45:12.995Z,100458.88
2022-08-14T18:50:27.849Z,100459.63
2022-08-14T18:55:53.301Z,100465.44
2022-08-14T19:00:58.887Z,100460.63
2022-08-14T19:06:05.955Z,100460.69
2022-08-14T19:11:39.348Z,100457.44
2022-08-14T19:16:48.314Z,100462.69
2022-08-14T19:21:57.240Z,100464.03
2022-08-14T19:27:19.537Z,100456.66
2022-08-14T19:32:36.675Z,100450.94
2022-08-14T19:37:52.432Z,100455.72
2022-08-14T19:42:54.512Z,100456.19
2022-08-14T19:48:00.822Z,100452.00
2022-08-14T19:53:10.792Z,100452.53
2022-08-14T19:58:13.189Z,100450.38
2022-08-14T20:03:18.583Z,100445.44
2022-08-14T20:11:07.028Z,100446.72
2022-08-14T20:13:44.841Z,100440.00
2022-08-14T20:18:49.780Z,100442.16
2022-08-14T20:24:31.028Z,100439.72
2022-08-14T20:29:38.087Z,100438.09
2022-08-14T20:34:51.118Z,100439.03
2022-08-14T20:39:54.637Z,100447.19
2022-08-14T20:45:23.777Z,100436.00
2022-08-14T20:50:29.721Z,100448.16
2022-08-14T20:55:37.288Z,100447.97
2022-08-14T21:00:52.514Z,100449.72
2022-08-14T21:06:17.269Z,100446.59
2022-08-14T21:11:24.027Z,100435.41
2022-08-14T21:16:34.951Z,100437.38
2022-08-14T21:21:42.431Z,100438.59
2022-08-14T21:26:52.457Z,100439.72
2022-08-14T21:32:20.769Z,100435.78
2022-08-14T21:37:23.319Z,100434.53
2022-08-14T21:42:24.894Z,100427.94
2022-08-14T21:47:29.598Z,100428.56
2022-08-14T21:52:51.714Z,100425.88
2022-08-14T21:58:04.143Z,100414.78
2022-08-14T22:03:23.506Z,100423.53
2022-08-14T22:08:27.241Z,100416.91
2022-08-14T22:13:32.543Z,100407.56
2022-08-14T22:18:34.364Z,100405.09
2022-08-14T22:23:38.136Z,100395.56
2022-08-14T22:28:45.008Z,100399.63
2022-08-14T22:33:49.965Z,100396.56
2022-08-14T22:38:51.648Z,100391.44
2022-08-14T22:44:00.422Z,100382.81
2022-08-14T22:49:15.518Z,100380.50
2022-08-14T22:54:52.333Z,100378.13
2022-08-14T22:59:51.160Z,100375.63
2022-08-14T23:04:55.392Z,100374.56
2022-08-14T23:10:32.305Z,100364.94
2022-08-14T23:15:23.139Z,100360.97
2022-08-14T23:20:29.209Z,100360.25
2022-08-14T23:25:45.821Z,100362.56
2022-08-14T23:30:53.854Z,100346.09
2022-08-14T23:35:59.020Z,100348.81
2022-08-14T23:41:04.118Z,100350.53
2022-08-14T23:46:12.626Z,100347.09
2022-08-14T23:51:16.849Z,100330.25
2022-08-14T23:56:30.478Z,100332.84
